Terminal Aerodrome Forecast
Issued by NWS

Home | Current Version | Previous Version | Text Only | Print | Product List | Glossary Off
Versions: 1 2 3 4 5 6 7 8 9 10 11 12 13 14 15 16 17 18

045
FTUS43 KIWX 090117 AAA
TAFSBN
TAF AMD
KSBN 090117Z 0901/0924 29008KT 3SM -SHSN OVC015
      TEMPO 0901/0903 1SM -SHSN OVC008
     FM090300 29010KT 3SM -SHSN OVC015
      TEMPO 0904/0908 1SM -SHSN OVC008
     FM090800 30012KT 2SM -SHSN OVC012
     FM091400 32013G19KT 4SM -SHSN OVC015=

USA.gov is the U.S. government's official web portal to all federal, state and local government web resources and services.